sensor_id;sensor_type;location;lat;lon;timestamp;P1;durP1;ratioP1;P2;durP2;ratioP2
30247;SDS011;17063;50.892;4.702;2023-05-29T00:01:33;11.63;;;3.90;;
30247;SDS011;17063;50.892;4.702;2023-05-29T00:04:02;10.83;;;4.20;;
30247;SDS011;17063;50.892;4.702;2023-05-29T00:06:29;9.83;;;3.87;;
30247;SDS011;17063;50.892;4.702;2023-05-29T00:08:56;10.20;;;4.10;;
30247;SDS011;17063;50.892;4.702;2023-05-29T00:11:23;10.90;;;4.40;;
30247;SDS011;17063;50.892;4.702;2023-05-29T00:13:50;14.70;;;4.07;;
30247;SDS011;17063;50.892;4.702;2023-05-29T00:16:17;10.50;;;4.37;;
30247;SDS011;17063;50.892;4.702;2023-05-29T00:18:44;15.53;;;4.20;;
30247;SDS011;17063;50.892;4.702;2023-05-29T00:21:14;9.03;;;4.20;;
30247;SDS011;17063;50.892;4.702;2023-05-29T00:23:42;9.00;;;3.90;;
30247;SDS011;17063;50.892;4.702;2023-05-29T00:26:11;9.30;;;4.17;;
30247;SDS011;17063;50.892;4.702;2023-05-29T00:28:41;12.93;;;4.40;;
30247;SDS011;17063;50.892;4.702;2023-05-29T00:31:08;10.30;;;4.30;;
30247;SDS011;17063;50.892;4.702;2023-05-29T00:33:35;12.07;;;4.43;;
30247;SDS011;17063;50.892;4.702;2023-05-29T00:36:02;7.97;;;3.90;;
30247;SDS011;17063;50.892;4.702;2023-05-29T00:38:30;11.27;;;4.50;;
30247;SDS011;17063;50.892;4.702;2023-05-29T00:40:57;8.67;;;4.63;;
30247;SDS011;17063;50.892;4.702;2023-05-29T00:43:25;14.23;;;4.77;;
30247;SDS011;17063;50.892;4.702;2023-05-29T00:45:52;10.40;;;4.47;;
30247;SDS011;17063;50.892;4.702;2023-05-29T00:48:19;10.67;;;5.00;;
30247;SDS011;17063;50.892;4.702;2023-05-29T00:50:46;9.37;;;5.10;;
30247;SDS011;17063;50.892;4.702;2023-05-29T00:53:13;9.10;;;5.07;;
30247;SDS011;17063;50.892;4.702;2023-05-29T00:55:40;9.97;;;5.03;;
30247;SDS011;17063;50.892;4.702;2023-05-29T00:58:07;11.53;;;5.17;;
30247;SDS011;17063;50.892;4.702;2023-05-29T01:00:34;10.67;;;4.83;;
30247;SDS011;17063;50.892;4.702;2023-05-29T01:03:02;9.37;;;5.00;;
30247;SDS011;17063;50.892;4.702;2023-05-29T01:05:32;11.93;;;4.90;;
30247;SDS011;17063;50.892;4.702;2023-05-29T01:08:00;12.70;;;5.00;;
30247;SDS011;17063;50.892;4.702;2023-05-29T01:10:28;12.70;;;4.80;;
30247;SDS011;17063;50.892;4.702;2023-05-29T01:18:54;14.07;;;5.13;;
30247;SDS011;17063;50.892;4.702;2023-05-29T01:21:20;6.80;;;4.57;;
30247;SDS011;17063;50.892;4.702;2023-05-29T01:23:54;13.83;;;5.13;;
30247;SDS011;17063;50.892;4.702;2023-05-29T01:29:18;11.57;;;4.57;;
30247;SDS011;17063;50.892;4.702;2023-05-29T01:31:49;15.17;;;5.40;;
30247;SDS011;17063;50.892;4.702;2023-05-29T01:34:17;11.80;;;4.93;;
30247;SDS011;17063;50.892;4.702;2023-05-29T01:36:44;9.47;;;5.03;;
30247;SDS011;17063;50.892;4.702;2023-05-29T01:39:13;14.30;;;5.53;;
30247;SDS011;17063;50.892;4.702;2023-05-29T01:41:40;10.20;;;5.53;;
30247;SDS011;17063;50.892;4.702;2023-05-29T01:44:08;10.53;;;5.13;;
30247;SDS011;17063;50.892;4.702;2023-05-29T01:46:38;9.57;;;4.90;;
30247;SDS011;17063;50.892;4.702;2023-05-29T01:49:07;15.93;;;5.70;;
30247;SDS011;17063;50.892;4.702;2023-05-29T01:51:35;10.20;;;4.80;;
30247;SDS011;17063;50.892;4.702;2023-05-29T01:54:02;12.20;;;5.63;;
30247;SDS011;17063;50.892;4.702;2023-05-29T01:56:29;14.93;;;5.37;;
30247;SDS011;17063;50.892;4.702;2023-05-29T01:58:57;13.63;;;5.57;;
30247;SDS011;17063;50.892;4.702;2023-05-29T02:01:25;12.17;;;5.50;;
30247;SDS011;17063;50.892;4.702;2023-05-29T02:03:52;10.60;;;5.43;;
30247;SDS011;17063;50.892;4.702;2023-05-29T02:06:19;10.43;;;5.17;;
30247;SDS011;17063;50.892;4.702;2023-05-29T02:08:47;10.17;;;5.10;;
30247;SDS011;17063;50.892;4.702;2023-05-29T02:11:14;11.67;;;5.07;;
30247;SDS011;17063;50.892;4.702;2023-05-29T02:13:41;14.93;;;4.90;;
30247;SDS011;17063;50.892;4.702;2023-05-29T02:16:08;12.43;;;5.23;;
30247;SDS011;17063;50.892;4.702;2023-05-29T02:18:35;10.50;;;4.43;;
30247;SDS011;17063;50.892;4.702;2023-05-29T02:21:05;15.57;;;5.77;;
30247;SDS011;17063;50.892;4.702;2023-05-29T02:23:32;10.53;;;5.57;;
30247;SDS011;17063;50.892;4.702;2023-05-29T02:25:59;17.90;;;5.20;;
30247;SDS011;17063;50.892;4.702;2023-05-29T02:28:26;11.83;;;4.80;;
30247;SDS011;17063;50.892;4.702;2023-05-29T02:30:53;15.87;;;5.00;;
30247;SDS011;17063;50.892;4.702;2023-05-29T02:33:21;10.47;;;5.20;;
30247;SDS011;17063;50.892;4.702;2023-05-29T02:35:47;13.53;;;5.00;;
30247;SDS011;17063;50.892;4.702;2023-05-29T02:38:14;11.03;;;5.07;;
30247;SDS011;17063;50.892;4.702;2023-05-29T02:40:41;13.53;;;5.60;;
30247;SDS011;17063;50.892;4.702;2023-05-29T02:43:09;13.17;;;4.73;;
30247;SDS011;17063;50.892;4.702;2023-05-29T02:45:38;19.23;;;5.00;;
30247;SDS011;17063;50.892;4.702;2023-05-29T02:48:06;12.30;;;4.00;;
30247;SDS011;17063;50.892;4.702;2023-05-29T02:50:33;11.53;;;4.87;;
30247;SDS011;17063;50.892;4.702;2023-05-29T02:53:00;15.37;;;4.30;;
30247;SDS011;17063;50.892;4.702;2023-05-29T02:55:27;12.57;;;5.00;;
30247;SDS011;17063;50.892;4.702;2023-05-29T02:57:54;14.07;;;4.83;;
30247;SDS011;17063;50.892;4.702;2023-05-29T03:00:22;15.40;;;4.20;;
30247;SDS011;17063;50.892;4.702;2023-05-29T03:02:49;9.87;;;4.33;;
30247;SDS011;17063;50.892;4.702;2023-05-29T03:05:17;19.03;;;4.00;;
30247;SDS011;17063;50.892;4.702;2023-05-29T03:07:44;8.30;;;3.87;;
30247;SDS011;17063;50.892;4.702;2023-05-29T03:10:11;9.43;;;4.00;;
30247;SDS011;17063;50.892;4.702;2023-05-29T03:12:38;13.83;;;3.50;;
30247;SDS011;17063;50.892;4.702;2023-05-29T03:15:06;12.53;;;3.73;;
30247;SDS011;17063;50.892;4.702;2023-05-29T03:17:34;16.00;;;3.87;;
30247;SDS011;17063;50.892;4.702;2023-05-29T03:20:09;14.20;;;3.37;;
30247;SDS011;17063;50.892;4.702;2023-05-29T03:22:37;19.23;;;3.73;;
30247;SDS011;17063;50.892;4.702;2023-05-29T03:25:04;15.80;;;3.80;;
30247;SDS011;17063;50.892;4.702;2023-05-29T03:27:33;11.30;;;3.10;;
30247;SDS011;17063;50.892;4.702;2023-05-29T03:30:12;14.40;;;3.70;;
30247;SDS011;17063;50.892;4.702;2023-05-29T03:32:40;10.63;;;3.30;;
30247;SDS011;17063;50.892;4.702;2023-05-29T03:35:07;11.23;;;3.07;;
30247;SDS011;17063;50.892;4.702;2023-05-29T03:37:37;11.17;;;3.13;;
30247;SDS011;17063;50.892;4.702;2023-05-29T03:40:04;9.90;;;3.60;;
30247;SDS011;17063;50.892;4.702;2023-05-29T03:42:32;12.93;;;3.50;;
30247;SDS011;17063;50.892;4.702;2023-05-29T03:45:00;15.97;;;3.20;;
30247;SDS011;17063;50.892;4.702;2023-05-29T03:47:28;13.87;;;2.70;;
30247;SDS011;17063;50.892;4.702;2023-05-29T03:49:54;10.77;;;3.40;;
30247;SDS011;17063;50.892;4.702;2023-05-29T03:52:22;11.53;;;2.63;;
30247;SDS011;17063;50.892;4.702;2023-05-29T03:54:48;10.97;;;3.10;;
30247;SDS011;17063;50.892;4.702;2023-05-29T03:57:15;11.17;;;2.83;;
30247;SDS011;17063;50.892;4.702;2023-05-29T03:59:43;9.87;;;2.80;;
30247;SDS011;17063;50.892;4.702;2023-05-29T04:02:10;12.87;;;3.00;;
30247;SDS011;17063;50.892;4.702;2023-05-29T04:04:40;14.00;;;3.20;;
30247;SDS011;17063;50.892;4.702;2023-05-29T04:07:07;10.20;;;2.80;;
30247;SDS011;17063;50.892;4.702;2023-05-29T04:09:34;9.87;;;3.10;;
30247;SDS011;17063;50.892;4.702;2023-05-29T04:12:02;9.57;;;2.70;;
30247;SDS011;17063;50.892;4.702;2023-05-29T04:14:29;12.33;;;3.03;;
30247;SDS011;17063;50.892;4.702;2023-05-29T04:16:56;15.20;;;2.93;;
30247;SDS011;17063;50.892;4.702;2023-05-29T04:19:23;10.80;;;2.87;;
30247;SDS011;17063;50.892;4.702;2023-05-29T04:21:50;13.57;;;2.33;;
30247;SDS011;17063;50.892;4.702;2023-05-29T04:24:17;10.47;;;2.57;;
30247;SDS011;17063;50.892;4.702;2023-05-29T04:26:44;15.17;;;2.90;;
30247;SDS011;17063;50.892;4.702;2023-05-29T04:29:11;10.40;;;3.00;;
30247;SDS011;17063;50.892;4.702;2023-05-29T04:31:40;11.63;;;3.30;;
30247;SDS011;17063;50.892;4.702;2023-05-29T04:34:07;13.67;;;2.43;;
30247;SDS011;17063;50.892;4.702;2023-05-29T04:36:34;12.47;;;2.37;;
30247;SDS011;17063;50.892;4.702;2023-05-29T04:39:09;13.63;;;3.03;;
30247;SDS011;17063;50.892;4.702;2023-05-29T04:41:36;11.57;;;2.60;;
30247;SDS011;17063;50.892;4.702;2023-05-29T04:44:06;11.10;;;2.33;;
30247;SDS011;17063;50.892;4.702;2023-05-29T04:46:41;12.17;;;3.10;;
30247;SDS011;17063;50.892;4.702;2023-05-29T04:49:11;10.00;;;2.60;;
30247;SDS011;17063;50.892;4.702;2023-05-29T04:51:39;12.33;;;2.70;;
30247;SDS011;17063;50.892;4.702;2023-05-29T04:54:11;12.20;;;3.60;;
30247;SDS011;17063;50.892;4.702;2023-05-29T04:56:40;9.13;;;2.53;;
30247;SDS011;17063;50.892;4.702;2023-05-29T04:59:09;12.70;;;3.10;;
30247;SDS011;17063;50.892;4.702;2023-05-29T05:01:36;10.97;;;2.97;;
30247;SDS011;17063;50.892;4.702;2023-05-29T05:04:02;8.27;;;2.43;;
30247;SDS011;17063;50.892;4.702;2023-05-29T05:06:29;15.30;;;3.10;;
30247;SDS011;17063;50.892;4.702;2023-05-29T05:08:57;19.27;;;2.67;;
30247;SDS011;17063;50.892;4.702;2023-05-29T05:11:24;11.43;;;3.07;;
30247;SDS011;17063;50.892;4.702;2023-05-29T05:13:52;8.17;;;2.63;;
30247;SDS011;17063;50.892;4.702;2023-05-29T05:16:19;12.03;;;3.53;;
30247;SDS011;17063;50.892;4.702;2023-05-29T05:18:46;13.67;;;2.60;;
30247;SDS011;17063;50.892;4.702;2023-05-29T05:21:13;14.57;;;3.13;;
30247;SDS011;17063;50.892;4.702;2023-05-29T05:23:40;15.83;;;3.03;;
30247;SDS011;17063;50.892;4.702;2023-05-29T05:26:23;12.40;;;2.70;;
30247;SDS011;17063;50.892;4.702;2023-05-29T05:28:53;12.33;;;3.10;;
30247;SDS011;17063;50.892;4.702;2023-05-29T05:31:22;19.77;;;2.87;;
30247;SDS011;17063;50.892;4.702;2023-05-29T05:33:49;13.47;;;2.80;;
30247;SDS011;17063;50.892;4.702;2023-05-29T05:36:17;16.00;;;3.00;;
30247;SDS011;17063;50.892;4.702;2023-05-29T05:38:44;9.40;;;2.97;;
30247;SDS011;17063;50.892;4.702;2023-05-29T05:41:12;11.97;;;3.43;;
30247;SDS011;17063;50.892;4.702;2023-05-29T05:43:40;8.60;;;2.40;;
30247;SDS011;17063;50.892;4.702;2023-05-29T05:46:29;13.77;;;2.63;;
30247;SDS011;17063;50.892;4.702;2023-05-29T05:48:57;11.40;;;2.67;;
30247;SDS011;17063;50.892;4.702;2023-05-29T05:51:24;8.43;;;2.23;;
30247;SDS011;17063;50.892;4.702;2023-05-29T05:53:51;8.23;;;2.47;;
30247;SDS011;17063;50.892;4.702;2023-05-29T05:56:18;9.17;;;2.57;;
30247;SDS011;17063;50.892;4.702;2023-05-29T05:58:45;10.83;;;3.07;;
30247;SDS011;17063;50.892;4.702;2023-05-29T06:01:13;10.30;;;2.57;;
30247;SDS011;17063;50.892;4.702;2023-05-29T06:03:42;10.77;;;2.87;;
30247;SDS011;17063;50.892;4.702;2023-05-29T06:06:09;10.73;;;3.00;;
30247;SDS011;17063;50.892;4.702;2023-05-29T06:08:39;13.47;;;3.50;;
30247;SDS011;17063;50.892;4.702;2023-05-29T06:11:08;10.93;;;2.80;;
30247;SDS011;17063;50.892;4.702;2023-05-29T06:13:37;9.27;;;2.40;;
30247;SDS011;17063;50.892;4.702;2023-05-29T06:16:11;10.60;;;2.63;;
30247;SDS011;17063;50.892;4.702;2023-05-29T06:18:38;11.90;;;2.70;;
30247;SDS011;17063;50.892;4.702;2023-05-29T06:21:07;9.90;;;2.97;;
30247;SDS011;17063;50.892;4.702;2023-05-29T06:23:41;11.80;;;2.90;;
30247;SDS011;17063;50.892;4.702;2023-05-29T06:26:09;8.00;;;2.33;;
30247;SDS011;17063;50.892;4.702;2023-05-29T06:28:36;11.37;;;3.17;;
30247;SDS011;17063;50.892;4.702;2023-05-29T06:31:03;8.90;;;2.50;;
30247;SDS011;17063;50.892;4.702;2023-05-29T06:33:30;7.83;;;2.47;;
30247;SDS011;17063;50.892;4.702;2023-05-29T06:35:57;11.27;;;2.47;;
30247;SDS011;17063;50.892;4.702;2023-05-29T06:38:26;11.67;;;2.60;;
30247;SDS011;17063;50.892;4.702;2023-05-29T06:40:54;12.37;;;3.30;;
30247;SDS011;17063;50.892;4.702;2023-05-29T06:43:23;11.67;;;2.67;;
30247;SDS011;17063;50.892;4.702;2023-05-29T06:45:55;15.37;;;3.10;;
30247;SDS011;17063;50.892;4.702;2023-05-29T06:48:23;9.80;;;2.80;;
30247;SDS011;17063;50.892;4.702;2023-05-29T06:50:51;19.73;;;3.33;;
30247;SDS011;17063;50.892;4.702;2023-05-29T06:53:36;8.83;;;2.20;;
30247;SDS011;17063;50.892;4.702;2023-05-29T06:56:05;12.73;;;2.43;;
30247;SDS011;17063;50.892;4.702;2023-05-29T06:58:33;11.77;;;2.80;;
30247;SDS011;17063;50.892;4.702;2023-05-29T07:01:01;11.23;;;2.47;;
30247;SDS011;17063;50.892;4.702;2023-05-29T07:03:34;8.83;;;2.80;;
30247;SDS011;17063;50.892;4.702;2023-05-29T07:06:03;9.63;;;2.57;;
30247;SDS011;17063;50.892;4.702;2023-05-29T07:08:31;9.93;;;2.13;;
30247;SDS011;17063;50.892;4.702;2023-05-29T07:10:58;14.67;;;3.00;;
30247;SDS011;17063;50.892;4.702;2023-05-29T07:13:25;12.20;;;2.77;;
30247;SDS011;17063;50.892;4.702;2023-05-29T07:15:53;10.60;;;2.43;;
30247;SDS011;17063;50.892;4.702;2023-05-29T07:18:27;13.20;;;2.90;;
30247;SDS011;17063;50.892;4.702;2023-05-29T07:20:55;7.03;;;2.40;;
30247;SDS011;17063;50.892;4.702;2023-05-29T07:23:25;9.30;;;2.30;;
30247;SDS011;17063;50.892;4.702;2023-05-29T07:25:54;10.07;;;2.40;;
30247;SDS011;17063;50.892;4.702;2023-05-29T07:28:23;9.17;;;2.47;;
30247;SDS011;17063;50.892;4.702;2023-05-29T07:30:52;9.97;;;2.50;;
30247;SDS011;17063;50.892;4.702;2023-05-29T07:33:19;11.90;;;2.53;;
30247;SDS011;17063;50.892;4.702;2023-05-29T07:35:47;10.67;;;2.40;;
30247;SDS011;17063;50.892;4.702;2023-05-29T07:38:14;10.27;;;2.57;;
30247;SDS011;17063;50.892;4.702;2023-05-29T07:40:42;11.57;;;2.53;;
30247;SDS011;17063;50.892;4.702;2023-05-29T07:43:11;12.80;;;3.00;;
30247;SDS011;17063;50.892;4.702;2023-05-29T07:45:54;8.83;;;2.40;;
30247;SDS011;17063;50.892;4.702;2023-05-29T07:48:22;6.50;;;2.23;;
30247;SDS011;17063;50.892;4.702;2023-05-29T07:50:50;13.47;;;2.47;;
30247;SDS011;17063;50.892;4.702;2023-05-29T07:53:19;10.50;;;2.50;;
30247;SDS011;17063;50.892;4.702;2023-05-29T07:55:46;8.43;;;2.50;;
30247;SDS011;17063;50.892;4.702;2023-05-29T07:58:14;8.33;;;2.10;;
30247;SDS011;17063;50.892;4.702;2023-05-29T08:00:44;11.20;;;2.10;;
30247;SDS011;17063;50.892;4.702;2023-05-29T08:03:12;10.67;;;2.73;;
30247;SDS011;17063;50.892;4.702;2023-05-29T08:05:58;9.77;;;2.40;;
30247;SDS011;17063;50.892;4.702;2023-05-29T08:08:27;8.33;;;2.30;;
30247;SDS011;17063;50.892;4.702;2023-05-29T08:10:55;7.27;;;2.27;;
30247;SDS011;17063;50.892;4.702;2023-05-29T08:13:23;9.47;;;2.40;;
30247;SDS011;17063;50.892;4.702;2023-05-29T08:15:52;10.27;;;3.13;;
30247;SDS011;17063;50.892;4.702;2023-05-29T08:18:19;12.67;;;2.63;;
30247;SDS011;17063;50.892;4.702;2023-05-29T08:20:47;8.73;;;2.60;;
30247;SDS011;17063;50.892;4.702;2023-05-29T08:23:14;9.57;;;2.47;;
30247;SDS011;17063;50.892;4.702;2023-05-29T08:25:41;10.00;;;2.43;;
30247;SDS011;17063;50.892;4.702;2023-05-29T08:28:07;10.07;;;2.70;;
30247;SDS011;17063;50.892;4.702;2023-05-29T08:30:35;10.80;;;2.50;;
30247;SDS011;17063;50.892;4.702;2023-05-29T08:33:03;11.10;;;2.47;;
30247;SDS011;17063;50.892;4.702;2023-05-29T08:35:30;8.23;;;2.60;;
30247;SDS011;17063;50.892;4.702;2023-05-29T08:37:57;12.13;;;2.73;;
30247;SDS011;17063;50.892;4.702;2023-05-29T08:40:24;12.17;;;3.07;;
30247;SDS011;17063;50.892;4.702;2023-05-29T08:42:55;8.37;;;2.50;;
30247;SDS011;17063;50.892;4.702;2023-05-29T08:45:24;10.20;;;3.00;;
30247;SDS011;17063;50.892;4.702;2023-05-29T08:47:51;10.53;;;2.60;;
30247;SDS011;17063;50.892;4.702;2023-05-29T08:50:20;9.90;;;2.53;;
30247;SDS011;17063;50.892;4.702;2023-05-29T08:52:47;12.87;;;2.93;;
30247;SDS011;17063;50.892;4.702;2023-05-29T08:55:15;9.33;;;2.60;;
30247;SDS011;17063;50.892;4.702;2023-05-29T08:57:42;8.43;;;2.50;;
30247;SDS011;17063;50.892;4.702;2023-05-29T09:00:12;11.60;;;2.37;;
30247;SDS011;17063;50.892;4.702;2023-05-29T09:02:39;13.60;;;2.80;;
30247;SDS011;17063;50.892;4.702;2023-05-29T09:05:07;13.03;;;2.50;;
30247;SDS011;17063;50.892;4.702;2023-05-29T09:07:35;15.63;;;2.97;;
30247;SDS011;17063;50.892;4.702;2023-05-29T09:10:06;8.67;;;2.47;;
30247;SDS011;17063;50.892;4.702;2023-05-29T09:12:34;9.60;;;2.50;;
30247;SDS011;17063;50.892;4.702;2023-05-29T09:15:02;10.53;;;2.70;;
30247;SDS011;17063;50.892;4.702;2023-05-29T09:17:33;10.40;;;2.77;;
30247;SDS011;17063;50.892;4.702;2023-05-29T09:20:00;9.43;;;3.20;;
30247;SDS011;17063;50.892;4.702;2023-05-29T09:22:31;10.20;;;2.63;;
30247;SDS011;17063;50.892;4.702;2023-05-29T09:24:58;10.43;;;2.60;;
30247;SDS011;17063;50.892;4.702;2023-05-29T09:27:26;10.43;;;2.70;;
30247;SDS011;17063;50.892;4.702;2023-05-29T09:29:53;7.80;;;2.40;;
30247;SDS011;17063;50.892;4.702;2023-05-29T09:32:20;13.63;;;2.90;;
30247;SDS011;17063;50.892;4.702;2023-05-29T09:34:49;9.17;;;2.53;;
30247;SDS011;17063;50.892;4.702;2023-05-29T09:37:21;7.20;;;2.47;;
30247;SDS011;17063;50.892;4.702;2023-05-29T09:39:49;10.30;;;2.80;;
30247;SDS011;17063;50.892;4.702;2023-05-29T09:42:20;9.93;;;2.73;;
30247;SDS011;17063;50.892;4.702;2023-05-29T09:44:51;9.40;;;2.53;;
30247;SDS011;17063;50.892;4.702;2023-05-29T09:47:19;11.80;;;3.33;;
30247;SDS011;17063;50.892;4.702;2023-05-29T09:49:46;10.87;;;2.83;;
30247;SDS011;17063;50.892;4.702;2023-05-29T09:52:13;15.53;;;3.13;;
30247;SDS011;17063;50.892;4.702;2023-05-29T09:54:42;9.90;;;2.70;;
30247;SDS011;17063;50.892;4.702;2023-05-29T09:57:16;12.67;;;3.27;;
30247;SDS011;17063;50.892;4.702;2023-05-29T09:59:44;14.60;;;2.80;;
30247;SDS011;17063;50.892;4.702;2023-05-29T10:02:20;10.33;;;2.63;;
30247;SDS011;17063;50.892;4.702;2023-05-29T10:04:49;10.10;;;2.80;;
30247;SDS011;17063;50.892;4.702;2023-05-29T10:07:26;15.43;;;3.03;;
30247;SDS011;17063;50.892;4.702;2023-05-29T10:09:59;15.93;;;3.00;;
30247;SDS011;17063;50.892;4.702;2023-05-29T10:12:28;8.37;;;2.27;;
30247;SDS011;17063;50.892;4.702;2023-05-29T10:14:56;11.50;;;2.80;;
30247;SDS011;17063;50.892;4.702;2023-05-29T10:17:34;15.57;;;2.87;;
30247;SDS011;17063;50.892;4.702;2023-05-29T10:20:02;13.00;;;3.00;;
30247;SDS011;17063;50.892;4.702;2023-05-29T10:22:33;10.47;;;2.80;;
30247;SDS011;17063;50.892;4.702;2023-05-29T10:25:00;9.50;;;2.50;;
30247;SDS011;17063;50.892;4.702;2023-05-29T10:27:30;13.73;;;2.80;;
30247;SDS011;17063;50.892;4.702;2023-05-29T10:30:13;15.67;;;2.77;;
30247;SDS011;17063;50.892;4.702;2023-05-29T10:35:46;13.23;;;2.77;;
30247;SDS011;17063;50.892;4.702;2023-05-29T10:38:15;9.33;;;2.40;;
30247;SDS011;17063;50.892;4.702;2023-05-29T10:40:44;16.70;;;3.63;;
30247;SDS011;17063;50.892;4.702;2023-05-29T10:43:30;10.17;;;2.73;;
30247;SDS011;17063;50.892;4.702;2023-05-29T10:46:02;11.73;;;2.43;;
30247;SDS011;17063;50.892;4.702;2023-05-29T10:48:35;11.53;;;3.43;;
30247;SDS011;17063;50.892;4.702;2023-05-29T10:51:04;16.27;;;2.80;;
30247;SDS011;17063;50.892;4.702;2023-05-29T10:53:33;14.97;;;2.93;;
30247;SDS011;17063;50.892;4.702;2023-05-29T10:56:00;13.47;;;3.00;;
30247;SDS011;17063;50.892;4.702;2023-05-29T10:58:30;9.63;;;2.30;;
30247;SDS011;17063;50.892;4.702;2023-05-29T11:00:57;9.27;;;2.67;;
30247;SDS011;17063;50.892;4.702;2023-05-29T11:03:31;12.43;;;3.30;;
30247;SDS011;17063;50.892;4.702;2023-05-29T11:08:45;10.87;;;2.57;;
30247;SDS011;17063;50.892;4.702;2023-05-29T11:11:29;9.50;;;2.70;;
30247;SDS011;17063;50.892;4.702;2023-05-29T11:14:00;8.97;;;2.20;;
30247;SDS011;17063;50.892;4.702;2023-05-29T11:19:06;10.87;;;2.70;;
30247;SDS011;17063;50.892;4.702;2023-05-29T11:24:26;14.73;;;2.97;;
30247;SDS011;17063;50.892;4.702;2023-05-29T11:26:55;10.83;;;2.50;;
30247;SDS011;17063;50.892;4.702;2023-05-29T11:29:23;12.17;;;2.57;;
30247;SDS011;17063;50.892;4.702;2023-05-29T11:34:28;10.27;;;2.73;;
30247;SDS011;17063;50.892;4.702;2023-05-29T11:36:59;10.13;;;3.27;;
30247;SDS011;17063;50.892;4.702;2023-05-29T11:39:27;10.73;;;2.70;;
30247;SDS011;17063;50.892;4.702;2023-05-29T11:41:55;7.83;;;2.40;;
30247;SDS011;17063;50.892;4.702;2023-05-29T11:44:25;8.27;;;2.50;;
30247;SDS011;17063;50.892;4.702;2023-05-29T11:47:02;8.23;;;2.50;;
30247;SDS011;17063;50.892;4.702;2023-05-29T11:49:33;12.77;;;2.40;;
30247;SDS011;17063;50.892;4.702;2023-05-29T11:52:08;13.87;;;2.97;;
30247;SDS011;17063;50.892;4.702;2023-05-29T11:54:42;11.37;;;2.60;;
30247;SDS011;17063;50.892;4.702;2023-05-29T11:57:19;12.93;;;2.70;;
30247;SDS011;17063;50.892;4.702;2023-05-29T11:59:49;11.87;;;2.33;;
30247;SDS011;17063;50.892;4.702;2023-05-29T12:02:18;9.83;;;2.60;;
30247;SDS011;17063;50.892;4.702;2023-05-29T12:05:07;9.07;;;2.67;;
30247;SDS011;17063;50.892;4.702;2023-05-29T12:07:34;7.93;;;2.30;;
30247;SDS011;17063;50.892;4.702;2023-05-29T12:10:10;7.40;;;2.10;;
30247;SDS011;17063;50.892;4.702;2023-05-29T12:12:38;9.67;;;2.67;;
30247;SDS011;17063;50.892;4.702;2023-05-29T12:15:16;10.60;;;2.33;;
30247;SDS011;17063;50.892;4.702;2023-05-29T12:17:51;15.67;;;3.00;;
30247;SDS011;17063;50.892;4.702;2023-05-29T12:20:19;11.27;;;2.27;;
30247;SDS011;17063;50.892;4.702;2023-05-29T12:22:49;14.47;;;3.03;;
30247;SDS011;17063;50.892;4.702;2023-05-29T12:25:17;7.70;;;2.23;;
30247;SDS011;17063;50.892;4.702;2023-05-29T12:27:45;7.63;;;2.40;;
30247;SDS011;17063;50.892;4.702;2023-05-29T12:30:14;9.90;;;2.70;;
30247;SDS011;17063;50.892;4.702;2023-05-29T12:32:59;9.23;;;2.20;;
30247;SDS011;17063;50.892;4.702;2023-05-29T12:35:28;7.47;;;2.60;;
30247;SDS011;17063;50.892;4.702;2023-05-29T12:37:56;7.60;;;2.33;;
30247;SDS011;17063;50.892;4.702;2023-05-29T12:40:25;11.20;;;2.70;;
30247;SDS011;17063;50.892;4.702;2023-05-29T12:42:57;6.97;;;2.50;;
30247;SDS011;17063;50.892;4.702;2023-05-29T12:45:25;6.63;;;2.10;;
30247;SDS011;17063;50.892;4.702;2023-05-29T12:47:54;10.20;;;2.20;;
30247;SDS011;17063;50.892;4.702;2023-05-29T12:50:30;9.10;;;2.57;;
30247;SDS011;17063;50.892;4.702;2023-05-29T12:53:14;9.10;;;2.67;;
30247;SDS011;17063;50.892;4.702;2023-05-29T12:55:42;9.43;;;2.50;;
30247;SDS011;17063;50.892;4.702;2023-05-29T12:58:12;7.87;;;2.40;;
30247;SDS011;17063;50.892;4.702;2023-05-29T13:00:40;8.67;;;2.27;;
30247;SDS011;17063;50.892;4.702;2023-05-29T13:03:08;10.87;;;2.30;;
30247;SDS011;17063;50.892;4.702;2023-05-29T13:05:37;9.23;;;2.03;;
30247;SDS011;17063;50.892;4.702;2023-05-29T13:08:04;8.00;;;2.60;;
30247;SDS011;17063;50.892;4.702;2023-05-29T13:10:35;10.27;;;2.30;;
30247;SDS011;17063;50.892;4.702;2023-05-29T13:13:03;9.03;;;2.10;;
30247;SDS011;17063;50.892;4.702;2023-05-29T13:15:30;10.17;;;2.53;;
30247;SDS011;17063;50.892;4.702;2023-05-29T13:18:00;8.80;;;2.60;;
30247;SDS011;17063;50.892;4.702;2023-05-29T13:20:27;9.33;;;2.50;;
30247;SDS011;17063;50.892;4.702;2023-05-29T13:22:54;9.83;;;2.70;;
30247;SDS011;17063;50.892;4.702;2023-05-29T13:25:21;8.17;;;2.50;;
30247;SDS011;17063;50.892;4.702;2023-05-29T13:27:50;8.53;;;2.40;;
30247;SDS011;17063;50.892;4.702;2023-05-29T13:30:19;10.37;;;2.87;;
30247;SDS011;17063;50.892;4.702;2023-05-29T13:32:46;7.17;;;2.37;;
30247;SDS011;17063;50.892;4.702;2023-05-29T13:35:13;7.50;;;2.20;;
30247;SDS011;17063;50.892;4.702;2023-05-29T13:37:40;6.37;;;2.47;;
30247;SDS011;17063;50.892;4.702;2023-05-29T13:40:07;10.23;;;2.53;;
30247;SDS011;17063;50.892;4.702;2023-05-29T13:42:39;6.97;;;2.37;;
30247;SDS011;17063;50.892;4.702;2023-05-29T13:45:06;10.33;;;2.37;;
30247;SDS011;17063;50.892;4.702;2023-05-29T13:47:35;12.83;;;2.93;;
30247;SDS011;17063;50.892;4.702;2023-05-29T13:50:02;9.33;;;2.60;;
30247;SDS011;17063;50.892;4.702;2023-05-29T13:52:29;9.27;;;2.43;;
30247;SDS011;17063;50.892;4.702;2023-05-29T13:54:56;7.40;;;2.33;;
30247;SDS011;17063;50.892;4.702;2023-05-29T13:57:26;11.80;;;2.70;;
30247;SDS011;17063;50.892;4.702;2023-05-29T13:59:52;15.50;;;2.40;;
30247;SDS011;17063;50.892;4.702;2023-05-29T14:02:19;9.20;;;3.00;;
30247;SDS011;17063;50.892;4.702;2023-05-29T14:04:48;9.80;;;2.63;;
30247;SDS011;17063;50.892;4.702;2023-05-29T14:07:15;8.03;;;2.60;;
30247;SDS011;17063;50.892;4.702;2023-05-29T14:09:41;8.73;;;2.60;;
30247;SDS011;17063;50.892;4.702;2023-05-29T14:12:09;7.27;;;2.40;;
30247;SDS011;17063;50.892;4.702;2023-05-29T14:14:36;10.67;;;2.80;;
30247;SDS011;17063;50.892;4.702;2023-05-29T14:17:04;6.73;;;2.20;;
30247;SDS011;17063;50.892;4.702;2023-05-29T14:19:31;11.33;;;2.87;;
30247;SDS011;17063;50.892;4.702;2023-05-29T14:21:58;6.60;;;2.67;;
30247;SDS011;17063;50.892;4.702;2023-05-29T14:24:26;8.60;;;2.70;;
30247;SDS011;17063;50.892;4.702;2023-05-29T14:26:53;6.87;;;2.50;;
30247;SDS011;17063;50.892;4.702;2023-05-29T14:29:20;11.90;;;3.33;;
30247;SDS011;17063;50.892;4.702;2023-05-29T14:31:47;10.87;;;2.80;;
30247;SDS011;17063;50.892;4.702;2023-05-29T14:34:13;10.13;;;2.60;;
30247;SDS011;17063;50.892;4.702;2023-05-29T14:36:40;7.67;;;2.27;;
30247;SDS011;17063;50.892;4.702;2023-05-29T14:39:11;7.63;;;2.77;;
30247;SDS011;17063;50.892;4.702;2023-05-29T14:41:38;10.20;;;2.40;;
30247;SDS011;17063;50.892;4.702;2023-05-29T14:44:05;7.93;;;2.30;;
30247;SDS011;17063;50.892;4.702;2023-05-29T14:46:32;8.33;;;2.97;;
30247;SDS011;17063;50.892;4.702;2023-05-29T14:49:00;7.83;;;2.10;;
30247;SDS011;17063;50.892;4.702;2023-05-29T14:51:27;7.90;;;2.30;;
30247;SDS011;17063;50.892;4.702;2023-05-29T14:53:54;9.07;;;2.70;;
30247;SDS011;17063;50.892;4.702;2023-05-29T14:56:21;6.73;;;2.33;;
30247;SDS011;17063;50.892;4.702;2023-05-29T14:58:48;11.77;;;2.50;;
30247;SDS011;17063;50.892;4.702;2023-05-29T15:01:18;9.63;;;2.50;;
30247;SDS011;17063;50.892;4.702;2023-05-29T15:03:45;9.63;;;2.70;;
30247;SDS011;17063;50.892;4.702;2023-05-29T15:06:12;7.57;;;2.67;;
30247;SDS011;17063;50.892;4.702;2023-05-29T15:08:39;8.60;;;2.43;;
30247;SDS011;17063;50.892;4.702;2023-05-29T15:11:10;8.60;;;2.33;;